createdAt,value
2019-01-23T00:03:10.193Z,39.30
2019-01-23T00:08:14.121Z,38.63
2019-01-23T00:13:17.813Z,40.33
2019-01-23T00:18:21.484Z,38.73
2019-01-23T00:23:25.149Z,37.60
2019-01-23T00:28:28.800Z,38.03
2019-01-23T00:33:32.472Z,36.77
2019-01-23T00:38:36.148Z,37.50
2019-01-23T00:43:39.810Z,38.20
2019-01-23T00:48:43.475Z,38.03
2019-01-23T00:53:47.151Z,37.20
2019-01-23T00:58:50.820Z,36.73
2019-01-23T01:03:54.909Z,39.50
2019-01-23T01:08:58.641Z,36.87
2019-01-23T01:14:02.321Z,37.57
2019-01-23T01:19:06.116Z,36.43
2019-01-23T01:24:10.055Z,34.73
2019-01-23T01:29:13.710Z,33.50
2019-01-23T01:34:17.445Z,32.47
2019-01-23T01:39:21.113Z,33.30
2019-01-23T01:44:24.788Z,32.17
2019-01-23T01:49:28.453Z,32.63
2019-01-23T01:54:32.126Z,33.13
2019-01-23T01:59:35.781Z,33.57
2019-01-23T02:04:39.448Z,35.20
2019-01-23T02:09:45.542Z,34.00
2019-01-23T02:14:48.499Z,35.20
2019-01-23T02:19:52.157Z,31.70
2019-01-23T02:24:56.107Z,33.90
2019-01-23T02:29:59.765Z,33.13
2019-01-23T02:35:03.581Z,31.30
2019-01-23T02:40:10.455Z,31.30
2019-01-23T02:45:14.611Z,31.67
2019-01-23T02:50:18.416Z,32.77
2019-01-23T02:55:22.170Z,29.67
2019-01-23T03:00:26.005Z,33.40
2019-01-23T03:05:29.690Z,34.73
2019-01-23T03:10:33.440Z,34.27
2019-01-23T03:15:37.114Z,32.67
2019-01-23T03:20:40.780Z,33.13
2019-01-23T03:25:44.454Z,33.60
2019-01-23T03:30:48.142Z,32.07
2019-01-23T03:35:51.879Z,30.90
2019-01-23T03:40:55.688Z,32.80
2019-01-23T03:45:59.380Z,32.40
2019-01-23T03:51:03.054Z,32.53
2019-01-23T03:56:06.799Z,32.77
2019-01-23T04:01:10.491Z,31.63
2019-01-23T04:06:14.171Z,33.93
2019-01-23T04:11:17.837Z,32.03
2019-01-23T04:16:21.513Z,32.13
2019-01-23T04:21:25.524Z,32.57
2019-01-23T04:26:29.208Z,33.67
2019-01-23T04:31:32.877Z,34.07
2019-01-23T04:36:36.566Z,33.20
2019-01-23T04:41:40.238Z,33.20
2019-01-23T04:46:43.912Z,31.83
2019-01-23T04:51:59.211Z,33.03
2019-01-23T04:57:02.890Z,33.60
2019-01-23T05:02:06.580Z,33.30
2019-01-23T05:07:10.258Z,32.87
2019-01-23T05:12:13.937Z,32.60
2019-01-23T05:17:17.607Z,31.97
2019-01-23T05:22:21.306Z,34.53
2019-01-23T05:27:24.973Z,33.73
2019-01-23T05:32:28.660Z,36.37
2019-01-23T05:37:32.391Z,35.50
2019-01-23T05:42:36.140Z,35.00
2019-01-23T05:47:39.820Z,34.83
2019-01-23T05:52:43.538Z,37.13
2019-01-23T05:57:47.514Z,37.13
2019-01-23T06:02:51.450Z,37.50
2019-01-23T06:07:55.194Z,37.93
2019-01-23T06:12:59.160Z,38.60
2019-01-23T06:18:02.840Z,38.20
2019-01-23T06:23:06.564Z,36.83
2019-01-23T06:28:10.298Z,40.53
2019-01-23T06:33:14.024Z,44.40
2019-01-23T06:38:17.707Z,42.37
2019-01-23T06:43:21.701Z,42.17
2019-01-23T06:48:25.445Z,45.13
2019-01-23T06:53:29.163Z,43.57
2019-01-23T06:58:32.891Z,48.03
2019-01-23T07:03:36.596Z,45.63
2019-01-23T07:08:40.295Z,48.57
2019-01-23T07:13:44.032Z,47.90
2019-01-23T07:18:47.729Z,48.63
2019-01-23T07:23:51.509Z,52.10
2019-01-23T07:28:55.456Z,53.67
2019-01-23T07:33:59.167Z,52.97
2019-01-23T07:39:04.534Z,54.13
2019-01-23T07:44:08.656Z,55.13
2019-01-23T07:49:12.332Z,53.90
2019-01-23T07:54:16.005Z,56.17
2019-01-23T07:59:19.680Z,57.50
2019-01-23T08:04:23.402Z,56.17
2019-01-23T08:09:27.095Z,57.27
2019-01-23T08:14:30.771Z,56.67
2019-01-23T08:19:34.440Z,58.20
2019-01-23T08:24:38.112Z,61.63
2019-01-23T08:29:41.861Z,64.00
2019-01-23T08:34:45.540Z,62.17
2019-01-23T08:39:49.220Z,61.27
2019-01-23T08:44:52.888Z,66.57
2019-01-23T08:49:56.573Z,63.77
2019-01-23T08:55:00.256Z,63.87
2019-01-23T09:00:04.957Z,64.70
2019-01-23T09:05:09.198Z,62.67
2019-01-23T09:10:15.972Z,61.43
2019-01-23T09:15:19.737Z,63.03
2019-01-23T09:20:23.775Z,63.40
2019-01-23T09:25:27.823Z,57.77
2019-01-23T09:30:44.105Z,59.33
2019-01-23T09:36:16.736Z,56.70
2019-01-23T09:41:41.724Z,56.33
2019-01-23T09:47:16.770Z,59.37
2019-01-23T09:52:48.572Z,58.00
2019-01-23T09:57:55.643Z,55.77
2019-01-23T10:02:59.406Z,54.73
2019-01-23T10:08:03.086Z,53.77
2019-01-23T10:13:06.849Z,54.87
2019-01-23T10:18:10.534Z,54.17
2019-01-23T10:23:14.213Z,53.70
2019-01-23T10:28:18.002Z,52.23
2019-01-23T10:33:21.706Z,57.13
2019-01-23T10:38:25.380Z,55.17
2019-01-23T10:43:29.086Z,54.63
2019-01-23T10:48:37.974Z,56.70
2019-01-23T10:53:38.185Z,56.70
2019-01-23T10:58:41.877Z,56.67
2019-01-23T11:03:45.562Z,59.90
2019-01-23T11:08:49.267Z,57.27
2019-01-23T11:13:52.941Z,57.03
2019-01-23T11:18:56.637Z,54.60
2019-01-23T11:24:00.407Z,55.17
2019-01-23T11:29:04.314Z,57.23
2019-01-23T11:34:08.070Z,55.23
2019-01-23T11:39:11.753Z,52.10
2019-01-23T11:44:15.494Z,51.83
2019-01-23T11:49:19.163Z,50.10
2019-01-23T11:54:22.851Z,51.80
2019-01-23T11:59:26.541Z,51.80
2019-01-23T12:04:30.270Z,49.53
2019-01-23T12:09:33.944Z,47.73
2019-01-23T12:14:37.619Z,43.47
2019-01-23T12:19:41.709Z,43.33
2019-01-23T12:24:45.447Z,44.40
2019-01-23T12:29:49.141Z,42.73
2019-01-23T12:34:52.805Z,42.40
2019-01-23T12:39:56.490Z,41.27
2019-01-23T12:45:00.524Z,40.47
2019-01-23T12:50:05.384Z,42.20
2019-01-23T12:55:09.572Z,40.43
2019-01-23T13:00:16.844Z,38.13
2019-01-23T13:05:21.128Z,40.53
2019-01-23T13:10:25.415Z,38.57
2019-01-23T13:15:29.253Z,38.77
2019-01-23T13:20:32.992Z,37.80
2019-01-23T13:25:36.670Z,36.13
2019-01-23T13:30:40.407Z,37.33
2019-01-23T13:35:44.099Z,35.20
2019-01-23T13:40:47.781Z,34.40
2019-01-23T13:45:51.456Z,34.23
2019-01-23T13:50:55.115Z,32.50
2019-01-23T13:55:59.064Z,32.83
2019-01-23T14:01:02.784Z,33.67
2019-01-23T14:06:06.922Z,40.17
2019-01-23T14:11:10.628Z,33.60
2019-01-23T14:16:14.469Z,32.07
2019-01-23T14:21:18.185Z,32.63
2019-01-23T14:26:21.927Z,31.97
2019-01-23T14:31:25.626Z,32.30
2019-01-23T14:36:29.326Z,31.40
2019-01-23T14:41:33.272Z,28.80
2019-01-23T14:46:36.984Z,30.67
2019-01-23T14:51:40.657Z,27.77
2019-01-23T14:56:44.322Z,27.57
2019-01-23T15:01:48.060Z,27.63
2019-01-23T15:06:51.746Z,29.17
2019-01-23T15:11:55.424Z,29.97
2019-01-23T15:16:59.180Z,29.97
2019-01-23T15:22:02.977Z,27.23
2019-01-23T15:27:06.684Z,26.47
2019-01-23T15:32:16.851Z,31.03
2019-01-23T15:37:15.997Z,26.57
2019-01-23T15:42:19.694Z,26.27
2019-01-23T15:47:23.420Z,28.60
2019-01-23T15:52:27.176Z,22.13
2019-01-23T15:57:31.052Z,23.20
2019-01-23T16:02:35.034Z,23.67
2019-01-23T16:07:38.956Z,24.77
2019-01-23T16:12:42.853Z,21.53
2019-01-23T16:17:47.331Z,20.03
2019-01-23T16:22:51.679Z,22.20
2019-01-23T16:27:55.532Z,19.77
2019-01-23T16:32:59.279Z,19.90
2019-01-23T16:38:03.337Z,19.93
2019-01-23T16:43:07.380Z,20.53
2019-01-23T16:48:11.396Z,19.63
2019-01-23T16:53:15.314Z,19.87
2019-01-23T16:58:19.177Z,21.90
2019-01-23T17:03:23.129Z,20.83
2019-01-23T17:08:27.151Z,19.53
2019-01-23T17:13:30.821Z,19.10
2019-01-23T17:18:34.579Z,20.70
2019-01-23T17:23:39.649Z,19.37
2019-01-23T17:28:43.343Z,19.97
2019-01-23T17:33:47.505Z,24.60
2019-01-23T17:38:52.350Z,23.33
2019-01-23T17:43:57.309Z,21.37
2019-01-23T17:49:01.709Z,21.30
2019-01-23T17:54:05.722Z,20.17
2019-01-23T17:59:09.397Z,20.67
2019-01-23T18:04:15.725Z,28.23
2019-01-23T18:09:23.370Z,23.43
2019-01-23T18:14:27.417Z,22.83
2019-01-23T18:19:31.429Z,23.07
2019-01-23T18:24:35.125Z,22.47
2019-01-23T18:29:38.916Z,21.57
2019-01-23T18:35:33.057Z,20.23
2019-01-23T18:41:14.841Z,21.63
2019-01-23T18:46:32.731Z,22.77
2019-01-23T18:52:01.933Z,21.47
2019-01-23T18:57:07.023Z,22.23
2019-01-23T19:02:12.397Z,22.43
2019-01-23T19:07:16.130Z,22.47
2019-01-23T19:12:19.881Z,22.67
2019-01-23T19:17:23.957Z,22.77
2019-01-23T19:22:28.925Z,21.57
2019-01-23T19:27:32.656Z,22.23
2019-01-23T19:32:36.504Z,22.30
2019-01-23T19:37:40.255Z,21.20
2019-01-23T19:42:48.010Z,21.97
2019-01-23T19:47:51.991Z,22.80
2019-01-23T19:52:56.116Z,23.63
2019-01-23T19:57:59.894Z,21.20
2019-01-23T20:03:03.725Z,21.63
2019-01-23T20:08:08.011Z,22.70
2019-01-23T20:13:12.178Z,22.50
2019-01-23T20:18:16.313Z,21.67
2019-01-23T20:23:20.137Z,21.97
2019-01-23T20:28:23.824Z,21.60
2019-01-23T20:33:28.293Z,22.10
2019-01-23T20:38:32.256Z,29.63
2019-01-23T20:43:35.944Z,25.87
2019-01-23T20:48:39.770Z,23.60
2019-01-23T20:53:43.489Z,23.40
2019-01-23T20:58:47.165Z,21.77
2019-01-23T21:03:50.979Z,23.83
2019-01-23T21:08:54.671Z,24.23
2019-01-23T21:13:58.349Z,24.37
2019-01-23T21:19:02.095Z,23.73
2019-01-23T21:24:05.977Z,23.70
2019-01-23T21:29:10.034Z,22.50
2019-01-23T21:34:13.729Z,24.20
2019-01-23T21:39:17.528Z,23.23
2019-01-23T21:44:21.228Z,22.00
2019-01-23T21:49:25.084Z,26.50
2019-01-23T21:54:29.679Z,25.53
2019-01-23T21:59:33.614Z,26.77
2019-01-23T22:04:37.403Z,23.80
2019-01-23T22:09:41.350Z,23.53
2019-01-23T22:14:45.086Z,23.37
2019-01-23T22:19:48.811Z,22.77
2019-01-23T22:24:52.638Z,22.33
2019-01-23T22:29:57.054Z,24.00
2019-01-23T22:35:01.081Z,23.87
2019-01-23T22:40:06.410Z,24.30
2019-01-23T22:45:12.792Z,24.93
2019-01-23T22:50:18.679Z,23.80
2019-01-23T22:55:22.599Z,22.93
2019-01-23T23:00:37.310Z,21.53
2019-01-23T23:05:40.992Z,22.20
2019-01-23T23:10:44.677Z,22.27
2019-01-23T23:15:48.614Z,22.17
2019-01-23T23:20:52.289Z,22.13
2019-01-23T23:25:55.974Z,21.37
2019-01-23T23:30:59.761Z,22.37
2019-01-23T23:36:04.183Z,20.50
2019-01-23T23:41:07.885Z,20.37
2019-01-23T23:46:11.567Z,22.13
2019-01-23T23:51:15.239Z,18.87
2019-01-23T23:56:19.074Z,19.37
